Time;durP1;ratioP1;P1;durP2;ratioP2;P2;SDS_P1;SDS_P2;PMS_P1;PMS_P2;Temp;Humidity;BMP_temperature;BMP_pressure;BME280_temperature;BME280_humidity;BME280_pressure;Samples;Min_cycle;Max_cycle;Signal;HPM_P1;HPM_P2
2023/06/12 00:01:36;;;;;;;5.65;4.68;;;;;;;24.31;33.75;101462.69;4989369;28;114324;-61
2023/06/12 00:04:04;;;;;;;9.32;5.50;;;;;;;24.25;33.81;101454.13;4989479;28;114297;-61
2023/06/12 00:06:33;;;;;;;8.75;4.85;;;;;;;24.21;33.89;101465.41;4989678;28;124529;-61
2023/06/12 00:09:00;;;;;;;7.95;4.93;;;;;;;24.17;34.19;101456.72;4986509;28;123974;-61
2023/06/12 00:11:27;;;;;;;10.57;5.22;;;;;;;24.15;34.35;101453.28;4988436;28;114898;-61
2023/06/12 00:13:55;;;;;;;7.10;4.78;;;;;;;24.13;34.44;101463.41;4987063;28;114053;-61
2023/06/12 00:16:22;;;;;;;8.40;5.28;;;;;;;24.11;34.57;101460.00;4986758;28;124392;-61
2023/06/12 00:18:51;;;;;;;9.85;5.18;;;;;;;24.08;34.67;101462.97;4987794;28;123686;-61
2023/06/12 00:21:23;;;;;;;7.88;5.43;;;;;;;24.06;34.83;101459.56;4990683;28;115043;-61
2023/06/12 00:23:50;;;;;;;6.43;5.30;;;;;;;24.01;34.81;101459.97;4987459;28;113890;-61
2023/06/12 00:26:17;;;;;;;8.32;5.30;;;;;;;23.98;34.95;101462.09;4988529;28;123893;-61
2023/06/12 00:28:46;;;;;;;6.90;5.10;;;;;;;23.94;34.86;101463.38;4986186;28;123937;-61
2023/06/12 00:31:13;;;;;;;6.15;5.18;;;;;;;23.90;35.10;101466.41;4989112;28;115942;-61
2023/06/12 00:33:41;;;;;;;6.13;5.15;;;;;;;23.88;35.09;101465.69;4987969;28;115075;-61
2023/06/12 00:36:08;;;;;;;7.10;4.80;;;;;;;23.83;35.04;101464.41;4990207;28;124357;-61
2023/06/12 00:38:35;;;;;;;6.35;4.72;;;;;;;23.77;35.08;101465.78;4987036;28;123987;-61
2023/06/12 00:41:03;;;;;;;8.60;5.22;;;;;;;23.73;35.18;101464.31;4989690;28;114114;-62
2023/06/12 00:43:30;;;;;;;7.15;5.63;;;;;;;23.67;35.26;101462.19;4987709;28;114260;-61
2023/06/12 00:45:58;;;;;;;6.97;5.47;;;;;;;23.61;35.34;101465.47;4987199;28;124807;-61
2023/06/12 00:48:25;;;;;;;9.55;5.40;;;;;;;23.55;35.47;101460.59;4987022;28;123665;-61
2023/06/12 00:50:56;;;;;;;6.97;5.28;;;;;;;23.50;35.58;101464.56;4987555;28;115135;-62
2023/06/12 00:53:23;;;;;;;8.50;5.22;;;;;;;23.46;35.57;101462.28;4990075;28;113841;-62
2023/06/12 00:55:51;;;;;;;7.53;5.28;;;;;;;23.44;35.82;101466.97;4988369;28;122941;-61
2023/06/12 00:58:18;;;;;;;6.60;5.13;;;;;;;23.42;35.85;101461.69;4987362;28;124689;-61
2023/06/12 01:00:48;;;;;;;7.10;4.88;;;;;;;23.39;35.85;101461.13;4989535;28;114660;-61
2023/06/12 01:03:17;;;;;;;9.65;5.43;;;;;;;23.36;35.92;101446.03;4988867;28;113442;-61
2023/06/12 01:05:46;;;;;;;6.90;4.82;;;;;;;23.33;35.96;101457.97;4980076;28;124395;-61
2023/06/12 01:08:20;;;;;;;7.55;5.20;;;;;;;23.29;36.06;101461.09;4988647;28;123032;-63
2023/06/12 01:10:58;;;;;;;7.80;5.50;;;;;;;23.27;36.20;101452.28;4983026;28;113911;-61
2023/06/12 01:13:25;;;;;;;8.30;5.18;;;;;;;23.26;36.22;101451.41;4988142;28;114015;-61
2023/06/12 01:15:54;;;;;;;9.40;5.40;;;;;;;23.24;36.18;101447.13;4989048;28;123361;-62
2023/06/12 01:18:23;;;;;;;7.63;5.47;;;;;;;23.22;36.27;101449.13;4973048;28;123762;-61
2023/06/12 01:20:53;;;;;;;7.80;5.47;;;;;;;23.20;36.55;101456.50;4988294;28;114316;-61
2023/06/12 01:23:39;;;;;;;8.57;5.60;;;;;;;23.18;36.54;101453.09;4988121;28;114049;-61
2023/06/12 01:26:14;;;;;;;7.95;5.40;;;;;;;23.15;36.46;101459.63;4988484;28;123498;-61
2023/06/12 01:28:43;;;;;;;5.80;5.10;;;;;;;23.13;36.71;101462.47;4984444;28;123153;-61
2023/06/12 01:31:50;;;;;;;8.27;5.43;;;;;;;23.10;36.63;101462.72;4981579;28;113492;-60
2023/06/12 01:34:24;;;;;;;9.45;5.68;;;;;;;23.05;36.67;101454.16;4980768;28;114068;-60
2023/06/12 01:37:05;;;;;;;7.07;5.35;;;;;;;23.01;36.53;101458.09;4984292;28;123192;-60
2023/06/12 01:39:40;;;;;;;8.93;5.07;;;;;;;22.97;36.75;101451.25;4982415;28;123559;-60
2023/06/12 01:42:08;;;;;;;9.33;5.60;;;;;;;22.93;36.70;101460.63;4975706;28;116282;-60
2023/06/12 01:44:35;;;;;;;7.10;5.20;;;;;;;22.90;36.72;101460.88;4991390;28;113221;-61
2023/06/12 01:47:03;;;;;;;7.57;5.40;;;;;;;22.86;37.41;101460.28;4991100;28;123577;-61
2023/06/12 01:49:31;;;;;;;8.65;5.70;;;;;;;22.83;37.21;101465.09;4990842;28;123011;-61
2023/06/12 01:52:00;;;;;;;8.27;5.97;;;;;;;22.79;37.17;101458.28;4992464;28;113499;-61
2023/06/12 01:54:28;;;;;;;7.43;5.30;;;;;;;22.76;37.09;101461.25;4991288;28;113581;-61
2023/06/12 01:56:57;;;;;;;10.05;6.05;;;;;;;22.71;37.19;101457.09;4977678;28;124782;-61
2023/06/12 01:59:25;;;;;;;9.15;6.07;;;;;;;22.67;37.21;101460.19;4991651;28;122988;-61
2023/06/12 02:01:52;;;;;;;7.80;6.00;;;;;;;22.61;37.36;101464.28;4991650;28;115059;-61
2023/06/12 02:04:19;;;;;;;7.35;6.13;;;;;;;22.56;37.45;101469.22;4991605;28;113413;-60
2023/06/12 02:06:48;;;;;;;8.93;5.93;;;;;;;22.51;37.48;101460.69;4991145;28;123469;-60
2023/06/12 02:09:16;;;;;;;7.05;5.75;;;;;;;22.47;37.65;101460.09;4991744;28;123421;-61
2023/06/12 02:11:43;;;;;;;8.25;5.90;;;;;;;22.44;37.60;101467.59;4974976;28;115023;-63
2023/06/12 02:14:10;;;;;;;8.32;5.88;;;;;;;22.38;37.71;101457.28;4991143;28;115180;-61
2023/06/12 02:16:37;;;;;;;8.13;5.95;;;;;;;22.32;37.63;101456.84;4991490;28;123443;-62
2023/06/12 02:19:05;;;;;;;7.40;5.80;;;;;;;22.28;37.88;101452.72;4989638;28;124694;-62
2023/06/12 02:21:33;;;;;;;8.35;6.10;;;;;;;22.24;38.00;101453.91;4991451;28;113276;-62
2023/06/12 02:24:00;;;;;;;8.35;5.90;;;;;;;22.19;37.88;101456.16;4983132;28;113079;-62
2023/06/12 02:26:31;;;;;;;9.23;5.78;;;;;;;22.14;37.96;101464.63;4986097;28;123134;-62
2023/06/12 02:29:09;;;;;;;7.45;5.53;;;;;;;22.11;38.16;101458.63;4993131;28;124164;-62
2023/06/12 02:31:40;;;;;;;9.43;5.70;;;;;;;22.09;38.03;101455.19;4990926;28;116791;-62
2023/06/12 02:34:10;;;;;;;7.30;5.55;;;;;;;22.06;38.09;101460.88;4990645;28;113142;-62
2023/06/12 02:36:41;;;;;;;8.73;5.85;;;;;;;22.04;38.20;101462.81;4990455;28;123650;-62
2023/06/12 02:39:13;;;;;;;9.73;6.28;;;;;;;22.01;38.07;101463.09;4990597;28;126441;-62
2023/06/12 02:41:45;;;;;;;7.82;6.35;;;;;;;21.97;38.38;101452.53;4991348;28;113119;-61
2023/06/12 02:44:12;;;;;;;8.23;6.22;;;;;;;21.94;38.49;101455.53;4961998;28;113289;-61
2023/06/12 02:46:54;;;;;;;7.45;6.25;;;;;;;21.87;38.83;101457.00;4974096;28;123316;-62
2023/06/12 02:49:29;;;;;;;8.18;6.10;;;;;;;21.81;39.05;101462.88;4990529;28;123592;-62
2023/06/12 02:51:58;;;;;;;9.55;6.75;;;;;;;21.78;38.97;101457.78;4989072;28;113631;-61
2023/06/12 02:54:26;;;;;;;8.70;6.28;;;;;;;21.73;39.36;101459.97;4990194;28;114098;-61
2023/06/12 02:56:55;;;;;;;10.88;6.55;;;;;;;21.69;39.52;101458.53;4990144;28;123273;-61
2023/06/12 02:59:24;;;;;;;8.25;6.88;;;;;;;21.68;39.57;101462.19;4987554;28;124044;-62
2023/06/12 03:01:57;;;;;;;9.53;6.67;;;;;;;21.65;39.57;101457.06;4990481;28;117804;-61
2023/06/12 03:04:40;;;;;;;9.98;6.45;;;;;;;21.63;39.48;101464.44;4989299;28;114164;-61
2023/06/12 03:07:12;;;;;;;8.68;6.75;;;;;;;21.60;39.59;101459.28;4981259;28;123463;-61
2023/06/12 03:09:41;;;;;;;10.43;6.90;;;;;;;21.57;39.70;101455.84;4989198;28;122977;-61
2023/06/12 03:12:09;;;;;;;11.23;6.72;;;;;;;21.54;39.56;101461.50;4989546;28;114057;-61
2023/06/12 03:14:38;;;;;;;9.48;6.07;;;;;;;21.52;39.63;101458.06;4988551;28;113174;-60
2023/06/12 03:17:06;;;;;;;9.82;6.97;;;;;;;21.49;39.77;101458.34;4987259;28;124323;-61
2023/06/12 03:19:33;;;;;;;26.00;7.93;;;;;;;21.46;39.91;101463.97;4989157;28;122738;-61
2023/06/12 03:22:01;;;;;;;25.70;8.32;;;;;;;21.42;39.70;101465.16;4988236;28;114221;-61
2023/06/12 03:24:29;;;;;;;18.38;7.35;;;;;;;21.38;39.74;101455.63;4987929;28;113682;-61
2023/06/12 03:26:58;;;;;;;16.27;7.43;;;;;;;21.34;39.89;101460.41;4989376;28;123382;-62
2023/06/12 03:29:28;;;;;;;13.65;7.20;;;;;;;21.30;40.04;101468.84;4978278;28;124641;-61
2023/06/12 03:31:56;;;;;;;13.88;6.85;;;;;;;21.27;39.96;101466.41;4990233;28;113376;-61
2023/06/12 03:34:25;;;;;;;14.00;7.30;;;;;;;21.24;40.06;101469.34;4989991;28;114153;-61
2023/06/12 03:36:54;;;;;;;12.05;6.90;;;;;;;21.19;40.20;101461.59;4972667;28;123270;-61
2023/06/12 03:39:25;;;;;;;12.40;7.30;;;;;;;21.15;40.28;101466.41;4978143;28;123325;-61
2023/06/12 03:41:58;;;;;;;12.02;7.22;;;;;;;21.12;40.32;101469.34;4990109;28;113285;-62
2023/06/12 03:44:36;;;;;;;9.25;7.13;;;;;;;21.10;40.21;101467.75;4990747;28;114404;-62
2023/06/12 03:47:04;;;;;;;9.00;7.07;;;;;;;21.07;40.20;101468.84;4988114;28;124217;-62
2023/06/12 03:49:31;;;;;;;9.85;7.07;;;;;;;21.05;40.16;101470.81;4988293;28;124252;-62
2023/06/12 03:51:59;;;;;;;8.75;6.63;;;;;;;21.03;40.09;101472.75;4982831;28;115396;-62
2023/06/12 03:54:26;;;;;;;9.02;7.13;;;;;;;21.02;40.10;101481.84;4981638;28;114693;-62
2023/06/12 03:56:53;;;;;;;8.90;6.90;;;;;;;21.00;40.24;101473.00;4989777;28;123340;-62
2023/06/12 03:59:20;;;;;;;9.35;5.95;;;;;;;21.00;40.32;101473.88;4986973;28;123975;-62
2023/06/12 04:01:48;;;;;;;9.02;6.28;;;;;;;21.01;40.24;101480.13;4990175;28;113448;-62
2023/06/12 04:04:16;;;;;;;9.80;6.05;;;;;;;20.99;40.25;101498.22;4989080;28;114067;-62
2023/06/12 04:06:45;;;;;;;10.27;5.88;;;;;;;20.97;40.67;101489.41;4989924;28;123307;-62
2023/06/12 04:09:14;;;;;;;11.07;6.15;;;;;;;20.94;40.69;101489.66;4988338;28;123966;-62
2023/06/12 04:11:42;;;;;;;9.65;5.70;;;;;;;20.93;40.78;101487.94;4990596;28;113637;-62
2023/06/12 04:14:10;;;;;;;9.10;6.20;;;;;;;20.93;40.78;101493.34;4989122;28;113331;-62
2023/06/12 04:16:37;;;;;;;7.63;5.75;;;;;;;20.92;40.88;101491.59;4990331;28;124133;-62
2023/06/12 04:19:05;;;;;;;11.32;5.60;;;;;;;20.92;40.70;101491.59;4990412;28;124107;-62
2023/06/12 04:21:35;;;;;;;9.35;5.85;;;;;;;20.91;40.69;101485.38;4990144;28;113759;-62
2023/06/12 04:24:05;;;;;;;8.27;5.32;;;;;;;20.95;40.85;101496.75;4989171;28;114007;-62
2023/06/12 04:26:34;;;;;;;7.82;5.65;;;;;;;20.95;41.01;101494.91;4988052;28;124158;-62
2023/06/12 04:29:02;;;;;;;7.97;5.75;;;;;;;20.98;40.97;101496.50;4980837;28;123619;-62
2023/06/12 04:31:30;;;;;;;8.30;6.10;;;;;;;21.01;41.14;101498.97;4989594;28;113939;-62
2023/06/12 04:33:58;;;;;;;8.30;6.18;;;;;;;21.04;40.96;101496.03;4989002;28;113880;-62
2023/06/12 04:36:27;;;;;;;6.95;5.75;;;;;;;21.05;40.91;101497.75;4989077;28;123259;-62
2023/06/12 04:38:56;;;;;;;9.07;5.88;;;;;;;21.08;41.11;101491.25;4989324;28;123220;-62
2023/06/12 04:41:24;;;;;;;10.15;5.85;;;;;;;21.10;41.04;101490.16;4989268;28;115286;-62
2023/06/12 04:43:58;;;;;;;7.90;6.07;;;;;;;21.12;40.87;101488.19;4987886;28;114114;-62
2023/06/12 04:46:32;;;;;;;9.05;5.50;;;;;;;21.19;41.17;101488.56;4988546;28;123722;-62
2023/06/12 04:49:02;;;;;;;8.10;5.72;;;;;;;21.27;41.16;101490.66;4988884;28;123560;-62
2023/06/12 04:51:29;;;;;;;7.70;5.93;;;;;;;21.40;41.26;101494.09;4989060;28;113474;-62
2023/06/12 04:53:57;;;;;;;8.45;5.70;;;;;;;21.53;41.26;101484.06;4988227;28;113947;-62
2023/06/12 04:56:25;;;;;;;8.68;6.13;;;;;;;21.72;41.41;101485.25;4988465;28;123353;-62
2023/06/12 04:58:53;;;;;;;9.10;6.63;;;;;;;21.90;41.04;101489.09;4986667;28;124509;-62
2023/06/12 05:01:23;;;;;;;8.23;6.38;;;;;;;22.05;40.89;101486.13;4989212;28;113373;-63
2023/06/12 05:03:52;;;;;;;9.23;6.20;;;;;;;22.21;40.69;101491.06;4988259;28;113343;-62
2023/06/12 05:06:20;;;;;;;9.85;6.13;;;;;;;22.34;40.46;101489.13;4988646;28;124375;-63
2023/06/12 05:08:48;;;;;;;7.10;5.82;;;;;;;22.46;40.17;101489.91;4988889;28;123278;-62
2023/06/12 05:11:16;;;;;;;8.93;5.63;;;;;;;22.58;40.09;101488.84;4989048;28;113277;-62
2023/06/12 05:13:43;;;;;;;8.68;6.15;;;;;;;22.68;39.77;101489.78;4972172;28;113143;-61
2023/06/12 05:16:11;;;;;;;10.93;5.90;;;;;;;22.77;39.72;101493.50;4990162;28;124107;-62
2023/06/12 05:18:38;;;;;;;8.88;5.93;;;;;;;22.84;39.69;101491.16;4983197;28;123816;-61
2023/06/12 05:21:06;;;;;;;8.88;5.80;;;;;;;22.93;39.52;101487.66;4992795;28;113147;-63
2023/06/12 05:23:34;;;;;;;7.90;5.82;;;;;;;23.02;39.37;101496.78;4992468;28;113604;-63
2023/06/12 05:26:01;;;;;;;8.57;5.70;;;;;;;23.11;39.21;101496.88;4992865;28;123953;-62
2023/06/12 05:28:28;;;;;;;7.40;5.97;;;;;;;23.19;39.04;101492.63;4972178;28;123063;-62
2023/06/12 05:30:56;;;;;;;11.73;5.80;;;;;;;23.27;39.04;101495.50;4990250;28;114960;-63
2023/06/12 05:33:23;;;;;;;8.00;6.03;;;;;;;23.35;39.02;101492.97;4991279;28;114001;-63
2023/06/12 05:35:50;;;;;;;7.25;5.90;;;;;;;23.42;39.03;101494.16;4971196;28;123230;-63
2023/06/12 05:38:18;;;;;;;7.85;5.80;;;;;;;23.52;39.01;101489.59;4983399;28;124264;-62
2023/06/12 05:40:46;;;;;;;9.05;5.57;;;;;;;23.62;38.73;101483.38;4992323;28;114030;-62
2023/06/12 05:43:13;;;;;;;8.30;5.28;;;;;;;23.69;38.72;101485.38;4991706;28;114830;-62
2023/06/12 05:45:40;;;;;;;11.18;5.57;;;;;;;23.79;38.77;101485.47;4990913;28;122986;-62
2023/06/12 05:48:08;;;;;;;12.00;5.63;;;;;;;23.91;38.74;101488.88;4992392;28;123737;-63
2023/06/12 05:50:35;;;;;;;11.40;5.82;;;;;;;24.03;38.40;101486.91;4990103;28;114138;-63
2023/06/12 05:53:06;;;;;;;10.98;5.80;;;;;;;24.14;38.42;101484.06;4990228;28;114454;-63
2023/06/12 05:55:37;;;;;;;9.05;5.75;;;;;;;24.25;38.23;101486.63;4991111;28;124307;-63
2023/06/12 05:58:04;;;;;;;8.23;5.65;;;;;;;24.36;37.97;101484.78;4991515;28;124301;-63
2023/06/12 06:00:35;;;;;;;10.45;5.78;;;;;;;24.47;37.97;101484.63;4992219;28;113439;-62
2023/06/12 06:03:07;;;;;;;7.43;5.50;;;;;;;24.58;38.06;101487.22;4992219;28;113516;-63
2023/06/12 06:05:35;;;;;;;7.32;5.78;;;;;;;24.70;37.74;101495.16;4989148;28;124439;-63
2023/06/12 06:08:13;;;;;;;11.60;5.32;;;;;;;24.80;37.52;101485.16;4988636;28;123745;-62
2023/06/12 06:10:44;;;;;;;8.40;5.63;;;;;;;24.91;37.30;101487.69;4991733;28;116706;-62
2023/06/12 06:13:11;;;;;;;6.60;5.13;;;;;;;25.02;37.39;101483.94;4986921;28;112983;-63
2023/06/12 06:15:39;;;;;;;10.25;5.55;;;;;;;25.13;37.02;101491.03;4990253;28;123674;-63
2023/06/12 06:18:08;;;;;;;6.35;5.32;;;;;;;25.22;37.00;101490.13;4975117;28;123462;-62
2023/06/12 06:20:36;;;;;;;6.63;4.90;;;;;;;25.30;36.91;101487.59;4991264;28;114877;-62
2023/06/12 06:23:04;;;;;;;9.10;4.95;;;;;;;25.41;37.04;101492.81;4979104;28;114072;-63
2023/06/12 06:25:32;;;;;;;7.40;4.97;;;;;;;25.54;36.72;101494.28;4990603;28;123459;-63
2023/06/12 06:28:00;;;;;;;6.03;5.03;;;;;;;25.63;36.28;101487.97;4990860;28;123059;-63
2023/06/12 06:30:28;;;;;;;9.77;4.65;;;;;;;25.73;36.10;101494.19;4989069;28;113337;-62
2023/06/12 06:32:55;;;;;;;7.57;4.70;;;;;;;25.80;35.84;101489.00;4989490;28;113767;-63
2023/06/12 06:35:23;;;;;;;7.28;4.97;;;;;;;25.89;35.94;101487.25;4989321;28;123116;-63
2023/06/12 06:37:51;;;;;;;8.77;4.75;;;;;;;25.98;36.03;101491.78;4991485;28;123520;-63
2023/06/12 06:40:18;;;;;;;6.55;4.60;;;;;;;26.08;35.88;101492.53;4989625;28;114404;-63
2023/06/12 06:42:46;;;;;;;6.65;4.60;;;;;;;26.20;35.55;101496.75;4989134;28;114607;-62
2023/06/12 06:45:20;;;;;;;18.25;5.63;;;;;;;26.32;35.43;101482.94;4989696;28;122883;-62
2023/06/12 06:47:50;;;;;;;14.43;5.68;;;;;;;26.43;35.31;101485.41;4990404;28;123004;-62
2023/06/12 06:50:19;;;;;;;10.13;5.43;;;;;;;26.54;34.97;101493.28;4990797;28;113374;-62
2023/06/12 06:52:46;;;;;;;6.60;4.68;;;;;;;26.65;34.65;101488.63;4988522;28;114326;-62
2023/06/12 06:55:15;;;;;;;6.45;4.72;;;;;;;26.74;34.47;101487.69;4989266;28;123211;-62
2023/06/12 06:57:42;;;;;;;9.13;5.00;;;;;;;26.82;34.85;101495.88;4987901;28;124278;-62
2023/06/12 07:00:11;;;;;;;9.40;5.03;;;;;;;26.92;34.63;101495.78;4990205;28;113558;-62
2023/06/12 07:02:42;;;;;;;7.05;4.47;;;;;;;27.02;34.22;101484.81;4989969;28;113117;-62
2023/06/12 07:05:11;;;;;;;5.65;4.95;;;;;;;27.10;33.95;101487.56;4989915;28;123228;-62
2023/06/12 07:07:39;;;;;;;7.90;5.40;;;;;;;27.16;33.73;101486.91;4990655;28;123275;-62
2023/06/12 07:10:26;;;;;;;5.50;4.90;;;;;;;27.23;33.87;101482.53;4976009;28;115332;-62
2023/06/12 07:12:56;;;;;;;6.53;4.70;;;;;;;27.28;33.83;101485.63;4986457;28;114106;-63
2023/06/12 07:15:31;;;;;;;6.80;4.72;;;;;;;27.40;33.80;101477.19;4989832;28;123620;-62
2023/06/12 07:17:59;;;;;;;7.22;4.70;;;;;;;27.53;33.79;101483.00;4990114;28;123453;-63
2023/06/12 07:20:27;;;;;;;9.35;5.10;;;;;;;27.65;33.62;101481.72;4974141;28;113369;-64
2023/06/12 07:22:54;;;;;;;6.32;4.70;;;;;;;27.76;33.57;101484.13;4990377;28;113108;-62
2023/06/12 07:25:21;;;;;;;7.07;4.45;;;;;;;27.89;33.34;101477.34;4989646;28;123908;-62
2023/06/12 07:27:48;;;;;;;6.60;4.82;;;;;;;28.00;33.07;101484.34;4974836;28;123289;-62
2023/06/12 07:30:16;;;;;;;6.28;4.72;;;;;;;28.07;32.92;101478.06;4990523;28;113788;-63
2023/06/12 07:32:44;;;;;;;6.25;4.80;;;;;;;28.17;33.20;101479.78;4989812;28;113290;-63
2023/06/12 07:35:11;;;;;;;6.25;4.60;;;;;;;28.28;32.75;101474.00;4985724;28;123204;-63
2023/06/12 07:37:39;;;;;;;9.73;4.72;;;;;;;28.40;32.93;101485.38;4983078;28;122965;-62
2023/06/12 07:40:24;;;;;;;;;;;;;;;;;;;;;
2023/06/12 07:42:52;;;;;;;7.50;4.63;;;;;;;28.58;32.50;101482.53;4994151;28;113807;-62
2023/06/12 07:45:20;;;;;;;7.22;4.72;;;;;;;28.66;32.49;101468.88;4989938;28;124422;-62
2023/06/12 07:47:49;;;;;;;8.45;5.05;;;;;;;28.76;32.64;101465.97;4971085;28;123946;-63
2023/06/12 07:50:22;;;;;;;8.40;4.72;;;;;;;28.88;32.70;101470.88;4974401;28;113314;-62
2023/06/12 07:52:50;;;;;;;6.65;4.60;;;;;;;29.02;32.19;101471.19;4988867;28;114306;-62
2023/06/12 07:55:18;;;;;;;7.30;5.28;;;;;;;29.15;32.03;101471.50;4971887;28;124068;-62
2023/06/12 07:57:47;;;;;;;6.75;4.78;;;;;;;29.23;31.91;101476.91;4989918;28;123590;-63
2023/06/12 08:00:15;;;;;;;8.35;5.13;;;;;;;29.33;31.54;101476.72;4989110;28;114509;-63
2023/06/12 08:03:00;;;;;;;10.02;4.93;;;;;;;29.39;31.55;101464.25;4990911;28;115119;-62
2023/06/12 08:05:40;;;;;;;7.18;4.50;;;;;;;29.47;31.50;101472.38;4988633;28;123212;-62
2023/06/12 08:08:12;;;;;;;6.28;4.78;;;;;;;29.56;31.40;101471.31;4988809;28;124232;-62
2023/06/12 08:10:40;;;;;;;7.57;4.68;;;;;;;29.65;31.19;101470.25;4989633;28;113602;-62
2023/06/12 08:13:08;;;;;;;8.80;5.10;;;;;;;29.73;31.29;101465.78;4988931;28;114048;-66
2023/06/12 08:15:36;;;;;;;5.63;4.93;;;;;;;29.79;31.03;101465.06;4972721;28;123671;-62
2023/06/12 08:18:06;;;;;;;7.22;4.65;;;;;;;29.89;31.29;101465.69;4989628;28;122941;-62
2023/06/12 08:20:33;;;;;;;6.38;4.40;;;;;;;29.99;30.98;101460.84;4990119;28;114380;-62
2023/06/12 08:23:02;;;;;;;8.45;4.93;;;;;;;30.09;30.78;101461.44;4989857;28;113509;-62
2023/06/12 08:25:30;;;;;;;5.28;4.68;;;;;;;30.17;30.62;101467.88;4986605;28;123941;-62
2023/06/12 08:27:58;;;;;;;6.60;4.68;;;;;;;30.24;30.68;101460.63;4989719;28;122773;-62
2023/06/12 08:30:26;;;;;;;6.78;4.60;;;;;;;30.31;30.33;101464.34;4989839;28;113411;-62
2023/06/12 08:32:54;;;;;;;8.68;4.30;;;;;;;30.40;30.17;101462.41;4973117;28;113666;-62
2023/06/12 08:35:22;;;;;;;6.30;4.72;;;;;;;30.45;30.30;101460.81;4986899;28;124323;-62
2023/06/12 08:37:50;;;;;;;5.47;4.40;;;;;;;30.50;30.30;101468.47;4989486;28;122874;-62
2023/06/12 08:40:17;;;;;;;6.38;4.53;;;;;;;30.52;29.66;101460.94;4986588;28;114395;-62
2023/06/12 08:42:50;;;;;;;6.97;4.90;;;;;;;30.52;30.04;101460.09;4989717;28;113310;-62
2023/06/12 08:45:25;;;;;;;6.40;4.38;;;;;;;30.55;29.89;101459.69;4985952;28;124574;-62
2023/06/12 08:47:55;;;;;;;6.35;4.50;;;;;;;30.62;29.11;101452.44;4985570;28;125045;-62
2023/06/12 08:50:23;;;;;;;7.65;4.80;;;;;;;30.65;29.30;101454.81;4987843;28;115170;-62
2023/06/12 08:52:51;;;;;;;5.35;4.38;;;;;;;30.70;29.89;101457.81;4991409;28;115332;-62
2023/06/12 08:55:21;;;;;;;6.60;4.22;;;;;;;30.78;29.59;101449.56;4991870;28;124186;-62
2023/06/12 08:57:48;;;;;;;6.63;4.63;;;;;;;30.89;29.24;101455.56;4993427;28;124137;-62
2023/06/12 09:00:16;;;;;;;7.68;4.43;;;;;;;30.95;29.42;101449.38;4992919;28;113974;-62
2023/06/12 09:02:49;;;;;;;9.15;4.32;;;;;;;31.02;29.03;101450.31;4991086;28;114046;-62
2023/06/12 09:05:19;;;;;;;8.23;4.72;;;;;;;31.05;29.03;101449.97;4979162;28;123898;-62
2023/06/12 09:07:48;;;;;;;6.13;4.50;;;;;;;31.08;28.83;101437.78;4993953;28;123759;-62
2023/06/12 09:10:16;;;;;;;6.10;5.00;;;;;;;31.10;28.44;101447.50;4994013;28;113908;-62
2023/06/12 09:12:45;;;;;;;6.50;4.50;;;;;;;31.14;28.49;101443.34;4988094;28;114350;-62
2023/06/12 09:15:16;;;;;;;5.35;4.35;;;;;;;31.16;28.27;101435.78;4989233;28;124213;-62
2023/06/12 09:17:48;;;;;;;7.65;4.70;;;;;;;31.21;28.65;101438.81;4990481;28;124069;-63
2023/06/12 09:20:27;;;;;;;6.63;4.43;;;;;;;31.29;28.84;101434.25;4992504;28;113404;-62
2023/06/12 09:23:10;;;;;;;12.85;4.95;;;;;;;31.35;28.24;101433.50;4979951;28;114062;-63
2023/06/12 09:25:43;;;;;;;6.32;4.85;;;;;;;31.35;28.44;101434.34;4990518;28;124905;-65
2023/06/12 09:28:36;;;;;;;6.97;4.78;;;;;;;31.38;28.05;101433.97;4990888;28;124749;-63
2023/06/12 09:31:04;;;;;;;7.30;4.60;;;;;;;31.47;28.26;101437.44;4978339;28;113593;-63
2023/06/12 09:33:32;;;;;;;8.30;4.63;;;;;;;31.52;27.98;101445.94;4991067;28;112917;-63
2023/06/12 09:36:00;;;;;;;7.07;4.90;;;;;;;31.53;27.65;101436.69;4990165;28;124590;-63
2023/06/12 09:38:29;;;;;;;6.38;4.72;;;;;;;31.52;27.65;101439.63;4991694;28;123964;-62
2023/06/12 09:40:57;;;;;;;7.28;4.30;;;;;;;31.50;27.51;101442.56;4989297;28;115205;-63
2023/06/12 09:43:28;;;;;;;6.88;4.85;;;;;;;31.51;27.56;101435.19;4990479;28;115551;-62
2023/06/12 09:45:56;;;;;;;6.65;4.40;;;;;;;31.51;27.44;101437.91;4989731;28;124689;-62
2023/06/12 09:48:24;;;;;;;5.60;4.90;;;;;;;31.53;27.17;101431.22;4990031;28;124868;-62
2023/06/12 09:50:52;;;;;;;6.45;4.60;;;;;;;31.53;27.43;101431.22;4989324;28;114403;-62
2023/06/12 09:53:21;;;;;;;4.82;4.25;;;;;;;31.57;27.62;101435.25;4990490;28;113851;-62
2023/06/12 09:55:49;;;;;;;6.22;4.57;;;;;;;31.67;27.48;101432.19;4992007;28;124392;-63
2023/06/12 09:58:18;;;;;;;6.38;4.50;;;;;;;31.73;27.01;101436.06;4991466;28;124213;-63
2023/06/12 10:00:46;;;;;;;6.43;4.88;;;;;;;31.75;27.80;101433.97;4983666;28;114169;-64
2023/06/12 10:03:17;;;;;;;5.95;5.03;;;;;;;31.81;27.74;101438.66;4987779;28;114037;-63
2023/06/12 10:05:50;;;;;;;5.65;4.82;;;;;;;31.92;27.67;101423.59;4988804;28;124287;-63
2023/06/12 10:08:17;;;;;;;6.32;4.78;;;;;;;32.01;27.56;101434.22;4991681;28;124019;-62
2023/06/12 10:10:45;;;;;;;6.55;4.60;;;;;;;32.07;27.08;101423.56;4993357;28;114503;-62
2023/06/12 10:13:13;;;;;;;8.23;4.90;;;;;;;32.15;27.26;101423.41;4991334;28;114231;-62
2023/06/12 10:15:41;;;;;;;6.47;4.40;;;;;;;32.23;26.75;101431.50;4989345;28;124059;-62
2023/06/12 10:18:11;;;;;;;5.47;4.85;;;;;;;32.31;26.87;101422.28;4990546;28;124267;-62
2023/06/12 10:20:40;;;;;;;7.03;4.85;;;;;;;32.37;27.05;101421.47;4990318;28;115573;-62
2023/06/12 10:23:09;;;;;;;7.65;4.72;;;;;;;32.44;26.90;101421.50;4991632;28;113603;-62
2023/06/12 10:25:36;;;;;;;6.60;4.90;;;;;;;32.48;26.99;101417.34;4991604;28;124763;-63
2023/06/12 10:28:04;;;;;;;6.72;4.70;;;;;;;32.52;26.57;101410.41;4987091;28;123777;-63
2023/06/12 10:31:07;;;;;;;5.85;4.53;;;;;;;32.55;26.29;101412.72;4984916;28;115221;-64
2023/06/12 10:33:35;;;;;;;5.50;5.00;;;;;;;32.54;26.56;101419.28;4990573;28;115231;-63
2023/06/12 10:36:10;;;;;;;8.45;4.82;;;;;;;32.57;26.72;101416.19;4977149;28;124768;-62
2023/06/12 10:38:48;;;;;;;5.65;5.07;;;;;;;32.60;26.71;101410.28;4976778;28;124538;-63
2023/06/12 10:41:32;;;;;;;6.53;5.05;;;;;;;32.61;26.53;101406.50;4990460;28;114371;-62
2023/06/12 10:43:59;;;;;;;4.82;4.22;;;;;;;32.65;26.32;101402.31;4991088;28;113710;-63
2023/06/12 10:46:44;;;;;;;5.63;4.70;;;;;;;32.70;26.52;101405.28;4990609;28;124185;-63
2023/06/12 10:49:13;;;;;;;7.25;4.60;;;;;;;32.71;26.46;101401.47;4977585;28;124072;-63
2023/06/12 10:51:48;;;;;;;6.05;4.78;;;;;;;32.74;26.15;101401.09;4989304;28;114371;-64
2023/06/12 10:54:15;;;;;;;6.43;4.72;;;;;;;32.77;25.90;101400.66;4990339;28;114298;-64
2023/06/12 10:56:59;;;;;;;6.68;4.78;;;;;;;32.82;26.02;101397.34;4988265;28;124848;-64
2023/06/12 10:59:34;;;;;;;7.77;4.47;;;;;;;32.87;25.42;101404.94;4986361;28;125399;-64
2023/06/12 11:02:05;;;;;;;6.15;4.47;;;;;;;32.86;25.92;101392.28;4980892;28;113980;-64
2023/06/12 11:04:39;;;;;;;5.43;4.88;;;;;;;32.89;26.00;101391.84;4990535;28;114772;-64
2023/06/12 11:07:07;;;;;;;7.53;4.68;;;;;;;32.93;26.16;101395.91;4986040;28;124808;-64
2023/06/12 11:09:44;;;;;;;5.82;4.78;;;;;;;32.91;25.40;101395.28;4985633;28;123915;-64
2023/06/12 11:12:11;;;;;;;8.00;5.05;;;;;;;32.88;25.90;101390.19;4983363;28;113897;-62
2023/06/12 11:14:38;;;;;;;5.85;4.63;;;;;;;32.91;25.57;101390.63;4985781;28;113988;-62
2023/06/12 11:17:06;;;;;;;5.75;4.47;;;;;;;32.95;25.34;101391.06;4986593;28;123726;-63
2023/06/12 11:19:33;;;;;;;5.57;4.78;;;;;;;33.01;25.86;101382.00;4988269;28;124052;-63
2023/06/12 11:22:03;;;;;;;5.68;4.70;;;;;;;33.10;25.58;101383.53;4979160;28;114376;-64
2023/06/12 11:24:31;;;;;;;6.82;4.75;;;;;;;33.18;25.72;101382.53;4989101;28;115594;-64
2023/06/12 11:27:00;;;;;;;5.50;4.50;;;;;;;33.20;25.28;101387.81;4988279;28;124911;-64
2023/06/12 11:29:34;;;;;;;8.35;4.90;;;;;;;33.23;25.22;101384.63;4976960;28;123993;-64